Latest Weather Observations for Leigh Creek

IDS60801

Issued at 9:35 pm CDT Friday 24 October 2014 (issued every 30 minutes, with the page automatically refreshed every 10 minutes)

About weather observations | Map of weather stations | Latest weather observations for SA | Other Formats
Station Details ID: 017110 Name: LEIGH CREEK AIRPORT Lat: -30.60 Lon: 138.42 Height: 258.8 m
Data from the previous 72 hours. | See also: Recent months at Leigh Creek
Date/Time
CDT
Temp
°C
App
Temp
°C
Dew
Point
Rel
Hum
%
Delta-T
°C
Wind Press
QNH
hPa
Press
MSL
hPa
Rain
since 9 am
mm
Dir
 
Spd
km/h
Gust
km/h
Spd
kts
Gust
kts
24/09:30pm 31.9 28.3 3.0 16 14.9 W 11 15 6 8 1015.2 1014.4 0.0
24/09:00pm 32.4 28.7 2.5 15 15.3 WNW 11 13 6 7 1015.0 1014.2 0.0
24/08:30pm 33.2 29.1 2.1 14 15.9 WNW 13 20 7 11 1014.7 1013.9 0.0
24/08:00pm 34.0 28.9 2.8 14 16.2 WNW 19 30 10 16 1014.6 1013.8 0.0
24/07:30pm 34.6 28.8 2.2 13 16.7 WNW 22 37 12 20 1014.4 1013.6 0.0
24/07:11pm 35.1 28.0 1.5 12 17.2 WSW 28 41 15 22 1013.9 1013.1 0.0
24/07:00pm 35.0 31.0 0.2 11 17.4 W 11 17 6 9 1013.5 1012.7 0.0
24/06:30pm 35.8 30.1 -0.5 10 18.1 W 19 26 10 14 1013.1 1012.3 0.0
24/06:00pm 36.4 31.2 -0.1 10 18.4 W 17 28 9 15 1012.8 1012.0 0.0
24/05:30pm 37.1 31.4 0.4 10 18.7 W 20 26 11 14 1012.7 1011.9 0.0
24/05:00pm 37.3 32.0 -0.9 9 19.1 W 17 26 9 14 1012.6 1011.8 0.0
24/04:30pm 37.8 32.1 -0.5 9 19.3 NW 19 26 10 14 1012.7 1011.9 0.0
24/04:00pm 37.8 31.6 -0.5 9 19.3 W 22 32 12 17 1012.8 1012.0 0.0
24/03:30pm 38.4 32.0 -1.6 8 19.9 W 22 37 12 20 1012.9 1012.1 0.0
24/03:00pm 37.9 29.4 -2.0 8 19.7 NW 33 48 18 26 1013.2 1012.4 0.0
24/02:30pm 38.3 30.4 -1.7 8 19.9 WNW 30 44 16 24 1013.5 1012.7 0.0
24/02:21pm 38.4 30.9 -1.6 8 19.9 WNW 28 46 15 25 1013.6 1012.8 0.0
24/02:00pm 38.0 30.4 -1.9 8 19.7 WNW 28 39 15 21 1013.9 1013.1 0.0
24/01:30pm 37.2 29.8 -0.9 9 19.0 NW 28 41 15 22 1014.4 1013.6 0.0
24/01:22pm 37.3 29.5 -0.9 9 19.1 NW 30 48 16 26 1014.5 1013.7 0.0
24/01:00pm 36.8 29.7 -1.2 9 18.8 NNW 26 37 14 20 1014.8 1014.0 0.0
24/12:30pm 36.8 29.9 0.2 10 18.5 N 26 39 14 21 1015.1 1014.3 0.0
24/12:00pm 35.2 27.2 0.3 11 17.5 N 32 50 17 27 1015.5 1014.8 0.0
24/11:30am 35.3 28.1 0.4 11 17.6 N 28 41 15 22 1015.9 1015.2 0.0
24/11:00am 35.0 28.1 2.5 13 16.9 N 28 39 15 21 1016.2 1015.5 0.0
24/10:30am 34.0 27.9 2.8 14 16.2 N 24 35 13 19 1016.6 1015.8 0.0
24/10:00am 32.4 26.8 3.4 16 15.1 N 22 30 12 16 1016.9 1016.1 0.0
24/09:30am 30.5 24.5 3.5 18 13.9 N 24 28 13 15 1016.9 1016.1 0.0
24/09:00am 29.0 23.3 3.1 19 13.1 N 22 32 12 17 1017.0 1016.2 0.0
24/08:30am 27.9 25.1 2.9 20 12.5 ENE 7 20 4 11 1016.9 1016.1 0.0
24/08:00am 24.5 22.9 2.6 24 10.7 CALM 0 0 0 0 1016.4 1015.7 0.0
24/07:30am 22.5 20.9 2.6 27 9.5 CALM 0 6 0 3 1016.1 1015.4 0.0
24/07:00am 21.1 18.3 1.9 28 9.0 SE 6 9 3 5 1015.9 1015.2 0.0
24/06:30am 20.3 17.8 1.7 29 8.6 SE 4 9 2 5 1015.7 1015.0 0.0
24/06:00am 19.6 17.9 1.6 30 8.3 SE 0 0 0 0 1015.6 1014.9 0.0
24/05:30am 20.6 17.7 1.5 28 8.8 SE 6 9 3 5 1015.3 1014.5 0.0
24/05:00am 21.3 18.4 1.6 27 9.2 S 6 9 3 5 1015.0 1014.2 0.0
24/04:30am 19.9 16.4 1.4 29 8.5 SSE 9 11 5 6 1014.8 1014.0 0.0
24/04:00am 20.7 17.8 1.6 28 8.9 SSE 6 9 3 5 1014.7 1013.9 0.0
24/03:30am 20.5 17.5 1.9 29 8.7 SSE 7 11 4 6 1014.7 1013.9 0.0
24/03:00am 21.3 17.9 1.6 27 9.2 SE 9 11 5 6 1014.8 1014.0 0.0
24/02:30am 20.3 17.4 1.2 28 8.8 ESE 6 7 3 4 1014.8 1014.0 0.0
24/02:00am 22.4 19.0 2.0 26 9.7 SE 9 11 5 6 1015.0 1014.2 0.0
24/01:30am 22.8 18.6 1.8 25 9.9 E 13 15 7 8 1015.3 1014.5 0.0
24/01:00am 23.6 19.8 1.9 24 10.4 E 11 13 6 7 1015.8 1015.1 0.0
24/12:30am 24.8 21.1 2.3 23 10.9 ESE 11 15 6 8 1015.8 1015.1 0.0
24/12:00am 24.8 21.8 1.7 22 11.1 ESE 7 11 4 6 1016.0 1015.3 0.0
 
Date/Time
CDT
Temp
°C
App
Temp
°C
Dew
Point
Rel
Hum
%
Delta-T
°C
Wind Press
QNH
hPa
Press
MSL
hPa
Rain
since 9 am
mm
Dir
 
Spd
km/h
Gust
km/h
Spd
kts
Gust
kts
23/11:30pm 26.7 23.4 2.6 21 11.9 S 9 13 5 7 1015.9 1015.2 0.0
23/11:00pm 27.0 23.6 2.1 20 12.2 S 9 13 5 7 1016.1 1015.4 0.0
23/10:30pm 25.6 21.6 2.9 23 11.2 S 13 15 7 8 1016.2 1015.5 0.0
23/10:00pm 26.3 22.4 3.5 23 11.4 S 13 15 7 8 1016.1 1015.4 0.0
23/09:30pm 27.4 23.1 3.2 21 12.1 S 15 17 8 9 1015.9 1015.2 0.0
23/09:00pm 27.5 23.5 2.6 20 12.4 S 13 13 7 7 1015.6 1014.9 0.0
23/08:30pm 29.1 25.9 3.1 19 13.2 SW 9 9 5 5 1015.1 1014.3 0.0
23/08:00pm 29.6 26.4 2.8 18 13.6 SW 9 11 5 6 1014.7 1013.9 0.0
23/07:30pm 31.1 27.5 3.2 17 14.3 SW 11 15 6 8 1014.5 1013.7 0.0
23/07:00pm 32.4 28.5 3.4 16 15.1 WSW 13 19 7 10 1014.4 1013.6 0.0
23/06:30pm 33.3 29.7 3.2 15 15.7 WSW 11 15 6 8 1014.2 1013.4 0.0
23/06:00pm 34.0 29.6 2.8 14 16.2 WSW 15 20 8 11 1014.2 1013.4 0.0
23/05:30pm 34.0 28.7 2.8 14 16.2 W 20 26 11 14 1014.0 1013.2 0.0
23/05:00pm 33.9 28.0 1.6 13 16.4 WSW 22 30 12 16 1013.9 1013.1 0.0
23/04:30pm 33.9 28.2 0.5 12 16.7 W 20 30 11 16 1013.8 1013.0 0.0
23/04:00pm 34.7 28.5 -0.1 11 17.3 W 22 35 12 19 1013.9 1013.1 0.0
23/03:30pm 35.0 29.2 0.2 11 17.4 WSW 20 32 11 17 1014.1 1013.3 0.0
23/03:00pm 35.2 30.2 1.5 12 17.3 WNW 17 28 9 15 1014.2 1013.4 0.0
23/02:30pm 35.1 29.7 2.6 13 16.9 W 20 28 11 15 1014.6 1013.8 0.0
23/02:00pm 34.4 28.9 2.0 13 16.7 W 20 35 11 19 1014.9 1014.1 0.0
23/01:30pm 35.3 29.8 1.6 12 17.3 WNW 20 35 11 19 1015.1 1014.3 0.0
23/01:00pm 34.8 29.4 1.2 12 17.1 W 19 28 10 15 1015.3 1014.5 0.0
23/12:30pm 34.0 30.3 4.6 16 15.7 SW 13 20 7 11 1015.6 1014.9 0.0
23/12:00pm 32.7 30.3 4.5 17 14.9 NNE 6 13 3 7 1016.0 1015.3 0.0
23/11:30am 32.4 28.5 3.4 16 15.1 S 13 20 7 11 1016.3 1015.6 0.0
23/11:00am 31.3 28.3 4.2 18 14.2 S 9 17 5 9 1016.6 1015.8 0.0
23/10:30am 31.2 28.7 4.9 19 13.9 SSW 7 15 4 8 1016.7 1015.9 0.0
23/10:00am 29.5 28.0 4.9 21 12.9 S 2 7 1 4 1016.8 1016.0 0.0
23/09:30am 28.6 27.4 4.8 22 12.4 CALM 0 7 0 4 1016.8 1016.0 0.0
23/09:00am 26.7 26.4 8.6 32 9.9 CALM 0 7 0 4 1016.8 1016.0 0.0
23/08:30am 23.0 23.4 11.1 47 6.7 CALM 0 0 0 0 1016.9 1016.1 0.0
23/08:00am 20.6 21.1 11.5 56 5.1 CALM 0 0 0 0 1016.9 1016.1 0.0
23/07:30am 18.9 18.9 11.0 60 4.3 S 2 6 1 3 1016.8 1016.0 0.0
23/07:00am 17.5 17.3 11.8 69 3.2 S 4 7 2 4 1016.6 1015.8 0.0
23/06:30am 17.1 15.3 12.2 73 2.7 S 13 17 7 9 1016.3 1015.6 0.0
23/06:00am 17.1 13.6 12.2 73 2.7 SSW 22 28 12 15 1016.1 1015.4 0.0
23/05:30am 17.8 13.6 12.3 70 3.1 SSW 26 30 14 16 1015.9 1015.2 0.0
23/05:00am 18.5 14.9 11.8 65 3.7 SSW 22 28 12 15 1015.8 1015.1 0.0
23/04:30am 19.4 16.6 11.4 60 4.4 S 17 20 9 11 1015.7 1015.0 0.0
23/04:00am 19.7 17.2 10.9 57 4.9 S 15 19 8 10 1015.6 1014.9 0.0
23/03:30am 20.2 17.9 10.6 54 5.3 SSW 13 19 7 10 1015.8 1015.1 0.0
23/03:00am 20.4 16.8 9.9 51 5.7 SSW 19 24 10 13 1015.9 1015.2 0.0
23/02:30am 21.3 18.3 9.2 46 6.5 S 15 22 8 12 1016.1 1015.4 0.0
23/02:00am 22.3 18.2 8.8 42 7.3 SSW 20 26 11 14 1016.4 1015.7 0.0
23/01:30am 23.2 18.3 6.9 35 8.5 SSW 22 28 12 15 1016.9 1016.1 0.0
23/01:00am 23.7 19.3 6.5 33 9.0 S 19 24 10 13 1016.9 1016.1 0.0
23/12:30am 24.2 19.6 6.5 32 9.2 SSW 20 26 11 14 1016.9 1016.1 0.0
23/12:00am 25.0 20.3 6.2 30 9.8 SSW 20 24 11 13 1016.9 1016.1 0.0
 
Date/Time
CDT
Temp
°C
App
Temp
°C
Dew
Point
Rel
Hum
%
Delta-T
°C
Wind Press
QNH
hPa
Press
MSL
hPa
Rain
since 9 am
mm
Dir
 
Spd
km/h
Gust
km/h
Spd
kts
Gust
kts
22/11:30pm 25.5 21.9 6.7 30 9.9 SSW 15 20 8 11 1017.0 1016.2 0.0
22/11:00pm 26.0 21.4 6.6 29 10.3 SSW 20 24 11 13 1017.0 1016.2 0.0
22/10:30pm 26.6 23.3 6.6 28 10.6 S 13 17 7 9 1017.0 1016.2 0.0
22/10:00pm 28.1 23.6 6.8 26 11.4 SSW 20 28 11 15 1016.8 1016.0 0.0
22/09:30pm 29.4 24.3 6.1 23 12.4 SSW 22 28 12 15 1016.3 1015.6 0.0
22/09:00pm 30.3 25.2 6.2 22 13.0 SSW 22 28 12 15 1016.0 1015.3 0.0
22/08:30pm 32.1 26.5 0.2 13 15.7 SW 19 24 10 13 1015.6 1014.9 0.0
22/08:00pm 33.1 26.9 -0.1 12 16.4 WSW 22 30 12 16 1015.3 1014.5 0.0
22/07:30pm 33.9 27.8 0.5 12 16.7 WSW 22 32 12 17 1015.0 1014.2 0.0
22/07:00pm 35.3 28.8 0.4 11 17.6 W 24 30 13 16 1014.7 1013.9 0.0
22/06:30pm 36.4 30.6 -0.1 10 18.4 W 20 28 11 15 1014.7 1013.9 0.0
22/06:00pm 35.3 28.6 -0.9 10 17.8 W 24 39 13 21 1014.7 1013.9 0.0
22/05:30pm 36.1 29.5 -0.3 10 18.2 W 24 35 13 19 1014.7 1013.9 0.0
22/05:00pm 36.4 29.8 -0.1 10 18.4 W 24 33 13 18 1014.8 1014.0 0.0
22/04:30pm 37.7 30.7 -0.6 9 19.3 NW 26 37 14 20 1014.9 1014.1 0.0
22/04:00pm 36.5 30.0 0.0 10 18.4 WNW 24 33 13 18 1015.2 1014.4 0.0
22/03:44pm 36.7 29.4 0.1 10 18.5 NW 28 46 15 25 1015.4 1014.6 0.0
22/03:30pm 37.2 30.1 -0.9 9 19.0 NNW 26 41 14 22 1015.4 1014.6 0.0
22/03:00pm 37.3 31.0 -0.9 9 19.1 NW 22 35 12 19 1015.9 1015.2 0.0
22/02:30pm 38.5 31.6 0.0 9 19.6 W 26 35 14 19 1016.4 1015.7 0.0
22/02:00pm 37.8 31.6 -0.5 9 19.3 NW 22 37 12 20 1016.8 1016.0 0.0
22/01:30pm 37.1 29.9 0.4 10 18.7 WNW 28 43 15 23 1017.3 1016.5 0.0
22/01:00pm 37.5 29.9 0.7 10 18.9 NNW 30 43 16 23 1017.4 1016.6 0.0
22/12:30pm 36.6 29.7 0.1 10 18.4 NNW 26 35 14 19 1017.8 1017.0 0.0
22/12:00pm 35.9 28.5 -0.5 10 18.1 NW 28 37 15 20 1018.2 1017.4 0.0
22/11:30am 35.8 28.4 -0.5 10 18.0 NNW 28 35 15 19 1018.3 1017.5 0.0
22/11:00am 35.0 29.2 0.2 11 17.4 N 20 28 11 15 1018.7 1017.9 0.0
22/10:30am 34.0 28.3 -0.6 11 17.0 NW 19 28 10 15 1019.0 1018.3 0.0
22/10:00am 32.9 28.4 -0.2 12 16.3 N 13 20 7 11 1019.0 1018.3 0.0
22/09:30am 31.5 28.2 -0.2 13 15.4 N 7 13 4 7 1018.9 1018.2 0.0
22/09:00am 29.8 27.9 0.4 15 14.3 CALM 0 0 0 0 1018.8 1018.0 0.0
22/08:30am 27.6 25.3 0.4 17 13.0 WSW 2 7 1 4 1018.8 1018.0 0.0
22/08:00am 25.5 23.2 0.2 19 11.9 WSW 2 6 1 3 1018.5 1017.7 0.0
22/07:30am 21.9 19.6 0.4 24 9.8 S 2 7 1 4 1018.1 1017.3 0.0
22/07:00am 20.6 16.0 -0.7 24 9.5 ESE 13 17 7 9 1017.6 1016.8 0.0
22/06:30am 20.3 16.9 -0.9 24 9.3 SE 7 9 4 5 1017.2 1016.4 0.0
22/06:00am 20.4 16.6 -0.8 24 9.4 SSE 9 13 5 7 1016.9 1016.1 0.0
22/05:30am 20.9 16.7 -1.0 23 9.7 SE 11 13 6 7 1016.7 1015.9 0.0
22/05:00am 20.7 16.5 -1.2 23 9.6 ESE 11 13 6 7 1016.7 1015.9 0.0
22/04:30am 20.7 18.5 -1.2 23 9.6 CALM 0 0 0 0 1016.6 1015.8 0.0
22/04:00am 22.7 19.2 -1.4 20 10.7 S 7 7 4 4 1016.4 1015.7 0.0
22/03:30am 21.9 18.6 -1.4 21 10.3 S 6 11 3 6 1016.4 1015.7 0.0
22/03:00am 21.8 19.6 -1.5 21 10.3 CALM 0 4 0 2 1016.6 1015.8 0.0
22/02:30am 23.7 20.2 -1.3 19 11.2 SE 7 9 4 5 1017.1 1016.3 0.0
22/02:00am 24.2 20.3 -1.6 18 11.6 SE 9 11 5 6 1017.4 1016.6 0.0
22/01:30am 24.3 20.8 -1.5 18 11.6 SE 7 9 4 5 1017.7 1016.9 0.0
22/01:00am 23.2 19.7 -1.7 19 11.1 SSW 7 9 4 5 1018.1 1017.3 0.0
22/12:30am 23.5 20.6 -1.4 19 11.1 S 4 11 2 6 1018.4 1017.6 0.0
22/12:00am 22.9 18.2 -1.9 19 10.9 E 13 17 7 9 1018.5 1017.7 0.0
 
Date/Time
CDT
Temp
°C
App
Temp
°C
Dew
Point
Rel
Hum
%
Delta-T
°C
Wind Press
QNH
hPa
Press
MSL
hPa
Rain
since 9 am
mm
Dir
 
Spd
km/h
Gust
km/h
Spd
kts
Gust
kts
21/11:30pm 24.9 20.2 -1.8 17 12.0 ESE 13 15 7 8 1018.8 1018.0 0.0
21/11:00pm 24.6 21.0 -2.0 17 11.9 SE 7 9 4 5 1019.1 1018.4 0.0
21/10:30pm 26.0 22.3 -2.6 15 12.8 E 7 11 4 6 1019.1 1018.4 0.0
21/10:00pm 25.7 22.0 -2.8 15 12.7 E 7 13 4 7 1019.0 1018.3 0.0

Other Formats:

Comma delimited format used in spreadsheet applications
http://www.bom.gov.au/fwo/IDS60801/IDS60801.94674.axf

JavaScript Object Notation format (JSON) in row-major order
http://www.bom.gov.au/fwo/IDS60801/IDS60801.94674.json